Greenfield, Missouri
Current Conditions -  °F | °C
As of 9:52 AM on Wednesday 28 Jan 2015 (Local Time) from KSGF Reporting Station
Clear Clear  
Wind Chill:   Ceiling: Unl
Heat Index:   Visibility: 10mi
Dew Point:   Wind: 23mph
Humidity: 63%   Direction: 150°SSE
Pressure: 30.07"   Gusts: NA
Location:  37.42°N, 93.84°W
Report Text: KSGF 281552Z 15020KT 10SM CLR 08/01 A3007 RMK AO2 PK WND 16028/1517 SLP185 T00780011
Loading
Personal Weather Stations






























Interactive Weather Map New forecast layout! Learn more

10-Day Weather Forecast

Advertisements
Track Severe Weather on mobile